Tiempo atmosférico en la estación meteorológica de Opakua, Araba/Álava (660 m.)



Fecha
DESCASC
Temp. máxima en grados centígrados (hora)
DESCASC
Temp. mínima en grados centígrados (hora)
DESCASC
Temp. media en grados centígrados
DESCASC
Racha de viento máxima en m/sg (hora)
DESCASC
Velocidad máxima media en intervalos de 10 minutos(hora)
DESCASC
Precipitaciones diarias en mm
DESCASC
Precipitaciones de 00:00 a 06:00 en mm
DESCASC
Precipitaciones de 06:00 a 12:00 en mm
DESCASC
Precipitaciones de 12:00 a 18:00 en mm
DESCASC
Precipitaciones de 18:00 a 24:00 en mm
DESCASC

Gráficas

Temp. máximas Temp. mínimas Temp. medias Precipitaciones Rachas de viento máximas Velocidades máximas media en intervalos de 10 minutos

Datos horarios

Fecha y hora oficial Temperatura (ºC) Velocidad del viento (km/h) Dirección del viento Racha (km/h) Dirección de racha Precipitación (mm) Presión (hPa) Tendencia (hPa) Humedad (%)
2019-08-22 23:00:00 14.1 8 Sudeste 13 Sudeste 0 -- -- 82
2019-08-22 22:00:00 15 9 Sudeste 12 Sudeste 0 -- -- 77
2019-08-22 21:00:00 19.6 4 Este 13 Nordeste 0 -- -- 66
2019-08-22 20:00:00 22.5 7 Nordeste 18 Norte 0 -- -- 57
2019-08-22 19:00:00 23.6 10 Nordeste 22 Nordeste 0 -- -- 50
2019-08-22 18:00:00 24.8 9 Nordeste 21 Nordeste 0 -- -- 44
2019-08-22 17:00:00 25.2 6 Nordeste 16 Nordeste 0 -- -- 36
2019-08-22 16:00:00 25 8 Nordeste 19 Nordeste 0 -- -- 36
2019-08-22 15:00:00 24.1 9 Nordeste 23 Este 0 -- -- 40
2019-08-22 14:00:00 23.4 9 Nordeste 21 Este 0 -- -- 40
2019-08-22 13:00:00 22.2 10 Norte 25 Noroeste 0 -- -- 43
2019-08-22 12:00:00 19.8 5 Noroeste 12 Noroeste 0 -- -- 62
2019-08-22 11:00:00 17 7 Oeste 16 Oeste 0 -- -- 81
2019-08-22 10:00:00 14.8 3 Sur 10 Oeste 0 -- -- 91
2019-08-22 09:00:00 13.9 2 Norte 6 Noroeste 0 -- -- 95
2019-08-22 08:00:00 13.4 0 Calma 5 Sudeste 0 -- -- 95
2019-08-22 07:00:00 13 0 Calma 3 Oeste 0 -- -- 97
2019-08-22 06:00:00 12.4 0 Calma 4 Sudeste 0 -- -- 97
2019-08-22 05:00:00 12 3 Sudeste 6 Oeste 0 -- -- 95
2019-08-22 04:00:00 12 3 Sudeste 8 Sudeste 0 -- -- 98
2019-08-22 03:00:00 11.1 6 Sudeste 10 Sudeste 0 -- -- 95
2019-08-22 02:00:00 11.1 8 Sudeste 12 Sudeste 0 -- -- 93
2019-08-22 01:00:00 11.8 9 Sudeste 13 Sudeste 0 -- -- 89
2019-08-22 00:00:00 13 9 Sudeste 12 Sudeste 0 -- -- 83
2019-08-21 23:00:00 15.7 4 Sur 16 Este 0 -- -- 74
2019-08-21 22:00:00 17 4 Este 17 Este 0 -- -- 78
2019-08-21 21:00:00 19.1 5 Nordeste 17 Nordeste 0 -- -- 74
2019-08-21 20:00:00 20.8 9 Nordeste 23 Norte 0 -- -- 69
2019-08-21 19:00:00 22.8 12 Norte 23 Nordeste 0 -- -- 63
2019-08-21 18:00:00 23.5 10 Nordeste 23 Norte 0 -- -- 61
2019-08-21 17:00:00 24 13 Nordeste 27 Nordeste 0 -- -- 58
2019-08-21 16:00:00 24.5 6 Este 22 Este 0 -- -- 54
2019-08-21 15:00:00 23.5 8 Nordeste 14 Este 0 -- -- 60
2019-08-21 14:00:00 22.8 5 Nordeste 14 Nordeste 0 -- -- 61
2019-08-21 13:00:00 20.8 6 Noroeste 12 Oeste 0 -- -- 66
2019-08-21 12:00:00 18.4 5 Oeste 9 Oeste 0 -- -- 73
2019-08-21 11:00:00 16.9 5 Noroeste 9 Noroeste 0 -- -- 78
2019-08-21 10:00:00 15.4 3 Sudoeste 6 Noroeste 0 -- -- 84
2019-08-21 09:00:00 12.3 2 Este 6 Sudeste 0 -- -- 96
2019-08-21 08:00:00 11.1 3 Sudeste 8 Sudeste 0 -- -- 95
2019-08-21 07:00:00 11.1 5 Sudeste 9 Sudeste 0 -- -- 95
2019-08-21 06:00:00 11.4 8 Sudeste 10 Sudeste 0 -- -- 95
2019-08-21 05:00:00 11.2 5 Sudeste 12 Sudeste 0 -- -- 93
2019-08-21 04:00:00 11.4 9 Sudeste 15 Sudeste 0 -- -- 93
2019-08-21 03:00:00 11.9 8 Sudeste 14 Sudeste 0 -- -- 92
2019-08-21 02:00:00 14.1 8 Este 18 Este 0 -- -- 86
2019-08-21 01:00:00 14.2 9 Este 18 Nordeste 0 -- -- 86
2019-08-21 00:00:00 14.4 6 Este 15 Nordeste 0 -- -- 85
2019-08-20 23:00:00 15.2 8 Nordeste 21 Nordeste 0 -- -- 81
2019-08-20 22:00:00 15.5 11 Nordeste 22 Nordeste 0 -- -- 81
2019-08-20 21:00:00 15.9 8 Nordeste 22 Nordeste 0 -- -- 78
2019-08-20 20:00:00 16.3 12 Nordeste 26 Nordeste 0 -- -- 76
2019-08-20 19:00:00 17.2 12 Nordeste 26 Nordeste 0 -- -- 71
2019-08-20 18:00:00 18.5 10 Nordeste 25 Nordeste 0 -- -- 65
2019-08-20 17:00:00 18.8 11 Nordeste 27 Nordeste 0 -- -- 66
2019-08-20 16:00:00 19.4 11 Norte 31 Norte 0 -- -- 63
2019-08-20 15:00:00 18.4 8 Nordeste 24 Nordeste 0 -- -- 65
2019-08-20 14:00:00 18.5 14 Nordeste 27 Nordeste 0 -- -- 66
2019-08-20 13:00:00 18.4 13 Nordeste 24 Este 0 -- -- 65
2019-08-20 12:00:00 17.5 7 Nordeste 20 Nordeste 0 -- -- 70
2019-08-20 11:00:00 15.6 7 Nordeste 15 Nordeste 0 -- -- 77
2019-08-20 10:00:00 14.5 6 Este 12 Nordeste 0 -- -- 85
2019-08-20 09:00:00 13.3 3 Nordeste 13 Nordeste 0 -- -- 90
2019-08-20 08:00:00 13.3 5 Nordeste 18 Nordeste 0 -- -- 92
2019-08-20 07:00:00 13.6 3 Oeste 15 Nordeste 0.4 -- -- 93
2019-08-20 06:00:00 13.8 4 Nordeste 16 Este 0 -- -- 88
2019-08-20 05:00:00 13.7 10 Este 17 Nordeste 0 -- -- 88
2019-08-20 04:00:00 13.9 4 Nordeste 17 Nordeste 0.2 -- -- 89
2019-08-20 03:00:00 14.2 11 Nordeste 21 Nordeste 0 -- -- 88
2019-08-20 02:00:00 14.5 7 Nordeste 19 Nordeste 0 -- -- 87
2019-08-20 01:00:00 14.5 11 Nordeste 23 Norte 0 -- -- 89
2019-08-20 00:00:00 14.7 6 Nordeste 22 Nordeste 0 -- -- 87
2019-08-19 23:00:00 14.6 13 Nordeste 27 Este 0 -- -- 87
2019-08-19 22:00:00 14.8 10 Nordeste 28 Este 0.2 -- -- 85
2019-08-19 21:00:00 15.6 5 Nordeste 22 Nordeste 0 -- -- 79
2019-08-19 20:00:00 15.9 9 Nordeste 27 Nordeste 0 -- -- 78
2019-08-19 19:00:00 16.6 12 Nordeste 28 Nordeste 0 -- -- 74
2019-08-19 18:00:00 17.2 13 Nordeste 27 Nordeste 0 -- -- 74
2019-08-19 17:00:00 17.7 12 Nordeste 28 Nordeste 0 -- -- 71
2019-08-19 16:00:00 17.8 12 Nordeste 22 Nordeste 0 -- -- 72
2019-08-19 15:00:00 16.8 12 Nordeste 26 Nordeste 0 -- -- 76
2019-08-19 14:00:00 17.9 12 Nordeste 25 Este 0 -- -- 71
2019-08-19 13:00:00 18 10 Nordeste 21 Nordeste 0 -- -- 71
2019-08-19 12:00:00 16.6 11 Nordeste 19 Nordeste 0 -- -- 73
2019-08-19 11:00:00 15.5 9 Nordeste 22 Nordeste 0 -- -- 79
2019-08-19 10:00:00 15.7 9 Nordeste 19 Nordeste 0 -- -- 77
2019-08-19 09:00:00 14.3 8 Nordeste 15 Norte 0 -- -- 84
2019-08-19 08:00:00 14.1 8 Nordeste 15 Nordeste 0 -- -- 86
2019-08-19 07:00:00 14 3 Nordeste 10 Nordeste 0 -- -- 84
2019-08-19 06:00:00 14.2 3 Nordeste 9 Este 0 -- -- 85
2019-08-19 05:00:00 14.3 5 Este 12 Nordeste 0 -- -- 86
2019-08-19 04:00:00 14.5 5 Noroeste 12 Noroeste 0 -- -- 87
2019-08-19 03:00:00 14.7 7 Noroeste 14 Oeste 0 -- -- 87
2019-08-19 02:00:00 14.6 2 Sudeste 7 Noroeste 0 -- -- 87
2019-08-19 01:00:00 14.5 4 Noroeste 22 Noroeste 0 -- -- 86
2019-08-19 00:00:00 14.6 8 Noroeste 24 Noroeste 0 -- -- 85
2019-08-18 23:00:00 15.9 13 Noroeste 26 Noroeste 0 -- -- 85
2019-08-18 22:00:00 16.3 17 Noroeste 27 Noroeste 0 -- -- 84
2019-08-18 21:00:00 17.3 14 Noroeste 23 Noroeste 0 -- -- 82
2019-08-18 20:00:00 18.3 16 Noroeste 28 Noroeste 0 -- -- 81
2019-08-18 19:00:00 19.2 15 Noroeste 27 Nordeste 0 -- -- 80
2019-08-18 18:00:00 20.2 9 Norte 31 Nordeste 0 -- -- 80
2019-08-18 17:00:00 21.8 20 Nordeste 33 Nordeste 0 -- -- 76
2019-08-18 16:00:00 25.4 10 Norte 21 Norte 0 -- -- 62
2019-08-18 15:00:00 24.2 11 Nordeste 22 Nordeste 0 -- -- 68
2019-08-18 14:00:00 24 10 Nordeste 22 Oeste 0 -- -- 67
2019-08-18 13:00:00 25.8 12 Noroeste 20 Oeste 0 -- -- 57
2019-08-18 12:00:00 25.4 7 Oeste 18 Oeste 0 -- -- 62
2019-08-18 11:00:00 24.6 5 Oeste 12 Oeste 0 -- -- 68
2019-08-18 10:00:00 22.6 4 Oeste 13 Oeste 0 -- -- 76
2019-08-18 09:00:00 21.1 5 Oeste 27 Este 0 -- -- 80
2019-08-18 08:00:00 18.7 4 Sur 14 Sudoeste 0 -- -- 87
2019-08-18 07:00:00 20.3 8 Sur 21 Este 0 -- -- 79
2019-08-18 06:00:00 20.2 7 Sudeste 17 Este 0 -- -- 85
2019-08-18 05:00:00 15.2 3 Sudeste 11 Sudeste 0 -- -- 91
2019-08-18 04:00:00 15.3 7 Sudeste 11 Sudeste 0 -- -- 92
2019-08-18 03:00:00 16.1 5 Oeste 11 Sudeste 0 -- -- 89
2019-08-18 02:00:00 15.8 2 Oeste 10 Sudeste 0 -- -- 89
2019-08-18 01:00:00 16.6 6 Sudeste 10 Sudeste 0 -- -- 87
2019-08-18 00:00:00 17 6 Sudeste 8 Sudeste 0 -- -- 86
2019-08-17 23:00:00 18.6 3 Este 10 Sudoeste 0 -- -- 79
2019-08-17 22:00:00 21.6 5 Sudeste 19 Sur 0 -- -- 70
2019-08-17 21:00:00 25.6 9 Sur 18 Sudoeste 0 -- -- 55
2019-08-17 20:00:00 30.1 3 Norte 11 Norte 0 -- -- 45
2019-08-17 19:00:00 31.2 3 Nordeste 20 Nordeste 0 -- -- 40
2019-08-17 18:00:00 30.5 11 Nordeste 24 Nordeste 0 -- -- 44
2019-08-17 17:00:00 32.5 8 Oeste 18 Oeste 0 -- -- 30
2019-08-17 16:00:00 31.6 10 Noroeste 18 Noroeste 0 -- -- 33
2019-08-17 15:00:00 30.3 5 Sudoeste 19 Noroeste 0 -- -- 36
2019-08-17 14:00:00 28.7 8 Noroeste 15 Noroeste 0 -- -- 41
2019-08-17 13:00:00 26.5 6 Noroeste 13 Noroeste 0 -- -- 44
2019-08-17 12:00:00 23.9 5 Noroeste 12 Noroeste 0 -- -- 49
2019-08-17 11:00:00 21.3 5 Oeste 12 Oeste 0 -- -- 55
2019-08-17 10:00:00 19.3 4 Oeste 8 Oeste 0 -- -- 60
2019-08-17 09:00:00 16.5 3 Nordeste 9 Sudeste 0 -- -- 70
2019-08-17 08:00:00 11.8 4 Sudeste 13 Sudeste 0 -- -- 86
2019-08-17 07:00:00 12.5 8 Sur 16 Este 0 -- -- 78
2019-08-17 06:00:00 11.9 9 Sudeste 13 Sudeste 0 -- -- 81
2019-08-17 05:00:00 12 8 Sudeste 13 Sudeste 0 -- -- 79
2019-08-17 04:00:00 12.8 10 Sudeste 12 Sudeste 0 -- -- 74
2019-08-17 03:00:00 13.8 5 Sudeste 14 Sudeste 0 -- -- 76
2019-08-17 02:00:00 14.6 10 Sudeste 13 Sudeste 0 -- -- 83
2019-08-17 01:00:00 15.1 8 Sudeste 12 Sudeste 0 -- -- 86
2019-08-17 00:00:00 16.2 6 Sudeste 12 Sudeste 0 -- -- 80
2019-08-16 23:00:00 17.6 7 Sudeste 12 Sudeste 0 -- -- 77
2019-08-16 22:00:00 20.4 3 Sur 16 Sudoeste 0 -- -- 67
2019-08-16 21:00:00 23 10 Sudeste 17 Sudeste 0 -- -- 64
2019-08-16 20:00:00 27.2 7 Norte 15 Norte 0 -- -- 55
2019-08-16 19:00:00 28.5 9 Nordeste 22 Nordeste 0 -- -- 46
2019-08-16 18:00:00 28.9 11 Nordeste 28 Nordeste 0 -- -- 45
2019-08-16 17:00:00 31.3 8 Noroeste 21 Noroeste 0 -- -- 37
2019-08-16 16:00:00 30.2 8 Este 18 Oeste 0 -- -- 36
2019-08-16 15:00:00 29.2 8 Norte 15 Noroeste 0 -- -- 37
2019-08-16 14:00:00 27.4 5 Nordeste 13 Este 0 -- -- 37
2019-08-16 13:00:00 25.4 5 Nordeste 10 Este 0 -- -- 40
2019-08-16 12:00:00 22.1 5 Norte 9 Norte 0 -- -- 45
2019-08-16 11:00:00 19.2 3 Nordeste 7 Oeste 0 -- -- 64
2019-08-16 10:00:00 16.3 3 Nordeste 7 Norte 0 -- -- 78
2019-08-16 09:00:00 12.6 3 Sudeste 10 Sudeste 0 -- -- 84
2019-08-16 08:00:00 7.9 8 Sudeste 12 Sudeste 0 -- -- 89
2019-08-16 07:00:00 7.8 9 Sudeste 12 Sudeste 0 -- -- 92
2019-08-16 06:00:00 8.3 8 Sudeste 11 Sudeste 0 -- -- 95
2019-08-16 05:00:00 9.2 7 Sudeste 9 Sudeste 0 -- -- 94
2019-08-16 04:00:00 9.8 8 Sudeste 12 Sudeste 0 -- -- 95
2019-08-16 03:00:00 10.2 9 Sudeste 13 Sudeste 0 -- -- 95
2019-08-16 02:00:00 10.8 10 Sudeste 12 Sudeste 0 -- -- 94
2019-08-16 01:00:00 10.7 7 Sudeste 11 Sudeste 0 -- -- 94
2019-08-16 00:00:00 11.5 7 Sudeste 10 Sudeste 0 -- -- 92
2019-08-15 23:00:00 12.7 8 Sudeste 11 Sudeste 0 -- -- 89
2019-08-15 22:00:00 14.6 7 Sudeste 9 Sudeste 0 -- -- 83
2019-08-15 21:00:00 18 4 Norte 19 Noroeste 0 -- -- 67
2019-08-15 20:00:00 19.4 7 Norte 21 Nordeste 0 -- -- 66
2019-08-15 19:00:00 20.1 10 Norte 22 Nordeste 0 -- -- 65
2019-08-15 18:00:00 20.3 12 Nordeste 24 Norte 0 -- -- 66
2019-08-15 17:00:00 22 11 Norte 39 Norte 0 -- -- 62
2019-08-15 16:00:00 22.4 19 Noroeste 34 Norte 0 -- -- 56
2019-08-15 15:00:00 21.7 15 Noroeste 26 Noroeste 0 -- -- 54
2019-08-15 14:00:00 21 12 Noroeste 25 Noroeste 0 -- -- 59
2019-08-15 13:00:00 19.7 7 Noroeste 17 Oeste 0 -- -- 70
2019-08-15 12:00:00 18 13 Noroeste 19 Noroeste 0 -- -- 77
2019-08-15 11:00:00 17.5 14 Noroeste 21 Noroeste 0 -- -- 80
2019-08-15 10:00:00 16.7 9 Noroeste 20 Noroeste 0 -- -- 86
2019-08-15 09:00:00 16.2 10 Noroeste 15 Noroeste 0 -- -- 92
2019-08-15 08:00:00 16.7 4 Oeste 8 Oeste 0 -- -- 93
2019-08-15 07:00:00 16.7 5 Noroeste 12 Noroeste 0.2 -- -- 93
2019-08-15 06:00:00 17.3 3 Sur 6 Oeste 0 -- -- 96
2019-08-15 05:00:00 17.4 4 Oeste 10 Oeste 0 -- -- 95
2019-08-15 04:00:00 17.8 3 Sudoeste 8 Sudoeste 0 -- -- 90
2019-08-15 03:00:00 18 2 Oeste 8 Oeste 0 -- -- 88
2019-08-15 02:00:00 18.3 3 Sur 8 Sudoeste 0 -- -- 85
2019-08-15 01:00:00 18.4 0 Calma 6 Este 0 -- -- 83
2019-08-15 00:00:00 18.5 3 Sudeste 13 Noroeste 0 -- -- 83
2019-08-14 23:00:00 18.6 14 Noroeste 19 Noroeste 0 -- -- 82
2019-08-14 22:00:00 18.6 7 Noroeste 18 Noroeste 0 -- -- 80
2019-08-14 21:00:00 20 17 Noroeste 26 Noroeste 0 -- -- 69
2019-08-14 20:00:00 22.7 12 Noroeste 25 Noroeste 0 -- -- 55
2019-08-14 19:00:00 24.8 15 Noroeste 26 Noroeste 0 -- -- 46
2019-08-14 18:00:00 25.9 15 Noroeste 26 Noroeste 0 -- -- 45
2019-08-14 17:00:00 26 15 Noroeste 27 Noroeste 0 -- -- 43
2019-08-14 16:00:00 26.4 13 Norte 28 Noroeste 0 -- -- 42
2019-08-14 15:00:00 26.2 10 Oeste 27 Oeste 0 -- -- 40
2019-08-14 14:00:00 25.3 10 Noroeste 19 Noroeste 0 -- -- 39
2019-08-14 13:00:00 23.9 8 Oeste 21 Oeste 0 -- -- 40
2019-08-14 12:00:00 22.1 5 Noroeste 10 Noroeste 0 -- -- 47
2019-08-14 11:00:00 20 2 Nordeste 6 Nordeste 0 -- -- 51
2019-08-14 10:00:00 16.6 5 Noroeste 8 Noroeste 0 -- -- 63
2019-08-14 09:00:00 13.6 2 Noroeste 6 Sur 0 -- -- 74
2019-08-14 08:00:00 9.7 4 Sur 13 Sudeste 0 -- -- 85
2019-08-14 07:00:00 9.3 12 Sudeste 15 Sudeste 0 -- -- 80
2019-08-14 06:00:00 8.5 10 Sudeste 14 Sudeste 0 -- -- 77
2019-08-14 05:00:00 8.9 9 Sudeste 13 Sudeste 0 -- -- 80
2019-08-14 04:00:00 9.2 10 Sudeste 13 Sudeste 0 -- -- 89
2019-08-14 03:00:00 9.2 8 Sudeste 12 Sudeste 0 -- -- 91
2019-08-14 02:00:00 9.3 9 Sudeste 13 Sudeste 0 -- -- 88
2019-08-14 01:00:00 9.5 8 Sudeste 10 Sudeste 0 -- -- 86
2019-08-14 00:00:00 10 7 Sudeste 13 Sudeste 0 -- -- 83
2019-08-13 23:00:00 10.9 8 Sudeste 13 Sudeste 0 -- -- 80
2019-08-13 22:00:00 13 9 Sudeste 13 Sudeste 0 -- -- 77
2019-08-13 21:00:00 16.8 3 Este 18 Nordeste 0 -- -- 67
2019-08-13 20:00:00 18.1 7 Nordeste 18 Nordeste 0 -- -- 61
2019-08-13 19:00:00 18.6 10 Nordeste 24 Norte 0 -- -- 61
2019-08-13 18:00:00 19.2 10 Nordeste 25 Norte 0 -- -- 58
2019-08-13 17:00:00 19.2 9 Norte 22 Nordeste 0 -- -- 58
2019-08-13 16:00:00 19.2 7 Norte 20 Norte 0 -- -- 58
2019-08-13 15:00:00 18.1 11 Nordeste 26 Norte 0 -- -- 64
2019-08-13 14:00:00 17.7 11 Nordeste 21 Norte 0 -- -- 65
2019-08-13 13:00:00 17.1 5 Noroeste 21 Nordeste 0 -- -- 65
2019-08-13 12:00:00 16.2 5 Norte 14 Oeste 0 -- -- 69
2019-08-13 11:00:00 16.2 5 Norte 9 Norte 0 -- -- 69
2019-08-13 10:00:00 12.9 5 Sudoeste 10 Sudoeste 0 -- -- 90
2019-08-13 09:00:00 12 4 Sudoeste 8 Sudoeste 0 -- -- 93
2019-08-13 08:00:00 11.6 0 Calma 6 Oeste 0 -- -- 93
2019-08-13 07:00:00 11.2 3 Sudeste 4 Sudeste 0 -- -- 96
2019-08-13 06:00:00 10.5 3 Sudeste 8 Sudeste 0 -- -- 97
2019-08-13 05:00:00 10.5 5 Sudeste 8 Sudeste 0 -- -- 95
2019-08-13 04:00:00 10.4 4 Sudeste 9 Sudeste 0 -- -- 95
2019-08-13 03:00:00 10.6 4 Sur 6 Sudeste 0 -- -- 94
2019-08-13 02:00:00 10.8 4 Sudeste 8 Sudeste 0 -- -- 93
2019-08-13 01:00:00 10.8 5 Sudeste 9 Sudeste 0 -- -- 92
2019-08-13 00:00:00 11.4 6 Sudeste 12 Sudeste 0 -- -- 89
2019-08-12 23:00:00 12 6 Sudeste 9 Oeste 0 -- -- 88
2019-08-12 22:00:00 13.3 4 Sudoeste 11 Noroeste 0 -- -- 82
2019-08-12 21:00:00 14.1 8 Oeste 18 Noroeste 0 -- -- 79
2019-08-12 20:00:00 14.6 11 Noroeste 28 Noroeste 0 -- -- 73
2019-08-12 19:00:00 15.4 18 Noroeste 32 Noroeste 0 -- -- 72
2019-08-12 18:00:00 16.9 19 Noroeste 39 Noroeste 0 -- -- 66
2019-08-12 17:00:00 16.8 16 Norte 35 Norte 0 -- -- 65
2019-08-12 16:00:00 18.1 19 Norte 33 Noroeste 0 -- -- 61
2019-08-12 15:00:00 18 18 Noroeste 30 Noroeste 0 -- -- 59
2019-08-12 14:00:00 17.2 9 Norte 23 Noroeste 0 -- -- 66
2019-08-12 13:00:00 16.3 15 Noroeste 25 Noroeste 0 -- -- 71
2019-08-12 12:00:00 15.1 11 Noroeste 19 Oeste 0 -- -- 77
2019-08-12 11:00:00 14.3 4 Noroeste 13 Oeste 0 -- -- 80
2019-08-12 10:00:00 13.9 7 Oeste 15 Oeste 0 -- -- 83
2019-08-12 09:00:00 12.4 5 Oeste 11 Oeste 0 -- -- 92
2019-08-12 08:00:00 10.3 5 Sudeste 6 Sudeste 0 -- -- 98
2019-08-12 07:00:00 9.4 4 Sudeste 9 Sudeste 0 -- -- 97
2019-08-12 06:00:00 10 6 Sudeste 8 Sudeste 0 -- -- 94
2019-08-12 05:00:00 11.5 3 Sur 8 Sudoeste 0 -- -- 92
2019-08-12 04:00:00 12.4 3 Sur 8 Oeste 0 -- -- 94
2019-08-12 03:00:00 12.8 4 Sur 10 Sudoeste 0 -- -- 94
2019-08-12 02:00:00 13.5 4 Oeste 6 Oeste 0 -- -- 90
2019-08-12 01:00:00 13.4 4 Sur 8 Sudeste 0 -- -- 93
2019-08-12 00:00:00 13.8 2 Sur 14 Noroeste 0 -- -- 88
2019-08-11 23:00:00 14.7 5 Noroeste 17 Nordeste 0 -- -- 85
2019-08-11 22:00:00 15 8 Norte 17 Noroeste 0 -- -- 86
2019-08-11 21:00:00 15.5 12 Noroeste 21 Noroeste 0 -- -- 86
2019-08-11 20:00:00 16.5 5 Norte 21 Norte 0 -- -- 80
2019-08-11 19:00:00 17.1 11 Norte 25 Norte 0 -- -- 79
2019-08-11 18:00:00 18.5 12 Nordeste 31 Nordeste 0 -- -- 73
2019-08-11 17:00:00 19.8 13 Nordeste 24 Este 0 -- -- 69
2019-08-11 16:00:00 21.3 10 Norte 32 Noroeste 0 -- -- 66
2019-08-11 15:00:00 19.9 12 Noroeste 23 Noroeste 0 -- -- 75
2019-08-11 14:00:00 19.4 6 Noroeste 15 Noroeste 0 -- -- 77
2019-08-11 13:00:00 17.7 5 Oeste 14 Oeste 0 -- -- 85
2019-08-11 12:00:00 16.6 6 Oeste 12 Oeste 0 -- -- 91
2019-08-11 11:00:00 15.6 8 Oeste 15 Oeste 0 -- -- 96
2019-08-11 10:00:00 15.3 7 Noroeste 10 Oeste 0 -- -- 96
2019-08-11 09:00:00 14.8 7 Oeste 9 Oeste 0.2 -- -- 98
2019-08-11 08:00:00 14.3 4 Oeste 18 Sudoeste 2.8 -- -- 99
2019-08-11 07:00:00 14.6 10 Oeste 20 Oeste 4.4 -- -- 98
2019-08-11 06:00:00 14.9 3 Oeste 14 Oeste 1 -- -- 98
2019-08-11 05:00:00 15 5 Oeste 11 Oeste 0.2 -- -- 97
2019-08-11 04:00:00 15.2 5 Oeste 11 Oeste 0 -- -- 96
2019-08-11 03:00:00 15.2 5 Oeste 17 Oeste 0.4 -- -- 94
2019-08-11 02:00:00 15.4 5 Sudoeste 13 Nordeste 1 -- -- 93
2019-08-11 01:00:00 16 7 Este 17 Nordeste 0.4 -- -- 86
2019-08-11 00:00:00 16.1 9 Este 18 Nordeste 0 -- -- 81
2019-08-10 23:00:00 16.3 8 Este 18 Norte 0 -- -- 83
2019-08-10 22:00:00 16.7 7 Nordeste 19 Nordeste 0 -- -- 80
2019-08-10 21:00:00 17.3 7 Nordeste 21 Este 0 -- -- 81
2019-08-10 20:00:00 18.6 12 Nordeste 23 Nordeste 0 -- -- 74
2019-08-10 19:00:00 19.8 16 Nordeste 29 Nordeste 0 -- -- 71
2019-08-10 18:00:00 20.5 17 Nordeste 32 Nordeste 0 -- -- 69
2019-08-10 17:00:00 21.8 13 Nordeste 26 Este 0 -- -- 66
2019-08-10 16:00:00 22.2 14 Nordeste 24 Nordeste 0 -- -- 63
2019-08-10 15:00:00 21.5 17 Nordeste 30 Norte 0 -- -- 66
2019-08-10 14:00:00 22.5 10 Norte 19 Noroeste 0 -- -- 59
2019-08-10 13:00:00 21.3 6 Nordeste 15 Nordeste 0 -- -- 66
2019-08-10 12:00:00 21 5 Este 12 Este 0 -- -- 71
2019-08-10 11:00:00 19.3 5 Noroeste 11 Noroeste 0 -- -- 81
2019-08-10 10:00:00 17.1 3 Oeste 7 Noroeste 0 -- -- 90
2019-08-10 09:00:00 16.2 0 Calma 6 Sudeste 0 -- -- 94
2019-08-10 08:00:00 14.2 0 Calma 10 Sudeste 0 -- -- 96
2019-08-10 07:00:00 13.4 7 Sudeste 9 Sudeste 0 -- -- 95
2019-08-10 06:00:00 13.4 5 Sudeste 12 Sudeste 0 -- -- 94
2019-08-10 05:00:00 13.3 7 Sudeste 13 Sudeste 0 -- -- 93
2019-08-10 04:00:00 13.5 9 Sudeste 13 Sudeste 0 -- -- 92
2019-08-10 03:00:00 13.4 7 Sudeste 10 Sudeste 0 -- -- 91
2019-08-10 02:00:00 13.9 9 Sudeste 12 Sudeste 0 -- -- 90
2019-08-10 01:00:00 14.1 8 Sudeste 15 Sudeste 0 -- -- 89
2019-08-10 00:00:00 14.6 10 Sudeste 15 Este 0 -- -- 87
2019-08-09 23:00:00 16.2 10 Sudeste 13 Sudeste 0 -- -- 83
2019-08-09 22:00:00 17.8 9 Norte 34 Sur 1.2 -- -- 74
2019-08-09 21:00:00 22.8 14 Oeste 37 Oeste 0.2 -- -- 52
2019-08-09 20:00:00 26.5 9 Sudoeste 26 Sudoeste 0 -- -- 42
2019-08-09 19:00:00 27.7 9 Sudoeste 31 Sudoeste 0 -- -- 51
2019-08-09 18:00:00 28 11 Oeste 30 Oeste 0 -- -- 52
2019-08-09 17:00:00 27.3 8 Oeste 33 Sudoeste 0 -- -- 55
2019-08-09 16:00:00 28.2 12 Oeste 33 Sudoeste 0 -- -- 54
2019-08-09 15:00:00 30 12 Sudoeste 30 Oeste 0 -- -- 52
2019-08-09 14:00:00 30.2 13 Oeste 32 Sudoeste 0 -- -- 49
2019-08-09 13:00:00 30.8 13 Oeste 34 Sudoeste 0 -- -- 46
2019-08-09 12:00:00 29.7 16 Sudoeste 44 Sur 0 -- -- 46
2019-08-09 11:00:00 28.4 15 Sudoeste 39 Sudoeste 0 -- -- 47
2019-08-09 10:00:00 26.6 16 Sur 28 Sur 0 -- -- 48
2019-08-09 09:00:00 25.3 10 Sudoeste 34 Sudoeste 0 -- -- 53
2019-08-09 08:00:00 24.4 18 Sudoeste 50 Sudoeste 0 -- -- 53
2019-08-09 07:00:00 24.4 15 Sudoeste 40 Sur 0 -- -- 54
2019-08-09 06:00:00 24.5 13 Sudoeste 46 Oeste 0 -- -- 56
2019-08-09 05:00:00 25.2 21 Sudoeste 52 Sudoeste 0 -- -- 54
2019-08-09 04:00:00 25.4 18 Sudoeste 42 Sudoeste 0 -- -- 53
2019-08-09 03:00:00 25.9 18 Sudoeste 30 Sudoeste 0 -- -- 51
2019-08-09 02:00:00 26 12 Sudoeste 28 Sudoeste 0 -- -- 50
2019-08-09 01:00:00 25.7 7 Sur 18 Sur 0 -- -- 54
2019-08-09 00:00:00 26.4 9 Sur 23 Sudeste 0 -- -- 53
2019-08-08 23:00:00 26.3 11 Sudeste 18 Sudeste 0 -- -- 54
2019-08-08 22:00:00 25.8 12 Sudeste 18 Sudeste 0 -- -- 57
2019-08-08 21:00:00 27.9 9 Sudeste 15 Sudeste 0 -- -- 53
2019-08-08 20:00:00 29 6 Sudeste 19 Sudoeste 0 -- -- 56
2019-08-08 19:00:00 31.3 7 Sur 25 Sudoeste 0 -- -- 43
2019-08-08 18:00:00 30.5 9 Sudoeste 22 Sur 0 -- -- 47
2019-08-08 17:00:00 30.2 10 Oeste 22 Sudoeste 0 -- -- 48
2019-08-08 16:00:00 28.8 10 Sudoeste 24 Sudoeste 0 -- -- 50
2019-08-08 15:00:00 28.6 14 Sur 28 Sudoeste 0 -- -- 51
2019-08-08 14:00:00 29.1 13 Sudoeste 33 Sudoeste 0 -- -- 51
2019-08-08 13:00:00 28.4 13 Sudoeste 30 Sudoeste 0 -- -- 51
2019-08-08 12:00:00 26.9 10 Sudoeste 31 Sudoeste 0 -- -- 55
2019-08-08 11:00:00 24.9 8 Sudoeste 20 Oeste 0 -- -- 58
2019-08-08 10:00:00 24.2 10 Sudoeste 31 Sudoeste 0 -- -- 60
2019-08-08 09:00:00 21.9 4 Este 19 Sur 0 -- -- 69
2019-08-08 08:00:00 19.9 3 Este 28 Oeste 0 -- -- 77
2019-08-08 07:00:00 19.4 5 Sudoeste 14 Sudoeste 0 -- -- 75
2019-08-08 06:00:00 19.1 4 Sur 26 Sudoeste 0 -- -- 75
2019-08-08 05:00:00 19.3 6 Sur 21 Sur 0 -- -- 72
2019-08-08 04:00:00 18.7 8 Sur 13 Sur 0 -- -- 76
2019-08-08 03:00:00 19.9 6 Sur 19 Sudoeste 0 -- -- 71
2019-08-08 02:00:00 19.7 9 Sur 17 Sur 0 -- -- 74
2019-08-08 01:00:00 19.3 6 Sudeste 17 Sur 0.2 -- -- 78
2019-08-08 00:00:00 19.2 10 Sur 17 Sur 0 -- -- 79
2019-08-07 23:00:00 20.2 10 Sudeste 13 Sudeste 0 -- -- 72
2019-08-07 22:00:00 22.4 5 Sur 22 Oeste 0 -- -- 61
2019-08-07 21:00:00 24.4 8 Oeste 30 Sudoeste 0 -- -- 48
2019-08-07 20:00:00 25.6 4 Sur 17 Sudeste 0 -- -- 61
2019-08-07 19:00:00 26.8 9 Sur 15 Sudoeste 0 -- -- 50
2019-08-07 18:00:00 26.6 7 Sudeste 12 Sudeste 0 -- -- 58
2019-08-07 17:00:00 27 5 Sudeste 26 Noroeste 0 -- -- 53
2019-08-07 16:00:00 26.9 6 Nordeste 19 Norte 0 -- -- 51
2019-08-07 15:00:00 25.7 8 Nordeste 20 Nordeste 0 -- -- 58
2019-08-07 14:00:00 24.8 10 Norte 19 Norte 0 -- -- 58
2019-08-07 13:00:00 23.5 8 Nordeste 17 Norte 0 -- -- 63
2019-08-07 12:00:00 21.5 5 Norte -- -- -- -- -- 74
2019-08-07 11:00:00 19.5 2 Norte 8 Oeste 0 -- -- 83
2019-08-07 10:00:00 18.1 3 Sudoeste 6 Sudoeste 0 -- -- 91
2019-08-07 09:00:00 16.8 0 Calma 5 Sudeste 0 -- -- 95
2019-08-07 08:00:00 16 3 Sudeste 6 Sudeste 0 -- -- 96
2019-08-07 07:00:00 16.1 0 Calma 5 Sudeste 0 -- -- 95
2019-08-07 06:00:00 16.3 2 Sur 6 Sudoeste 0 -- -- 96
2019-08-07 05:00:00 16.2 3 Sudoeste 8 Oeste 0 -- -- 96
2019-08-07 04:00:00 16.2 3 Sur 10 Sudoeste 0 -- -- 94
2019-08-07 03:00:00 16.7 5 Nordeste 18 Este 0.6 -- -- 90
2019-08-07 02:00:00 16.7 3 Sudeste 10 Sudoeste 1 -- -- 93
2019-08-07 01:00:00 17.2 4 Sur 12 Sudoeste 0 -- -- 84
2019-08-07 00:00:00 17.9 0 Calma 6 Oeste 0 -- -- 85
2019-08-06 23:00:00 18.5 6 Noroeste 19 Noroeste 0 -- -- 83
2019-08-06 22:00:00 19.5 12 Noroeste 21 Noroeste 0 -- -- 77
2019-08-06 21:00:00 21.5 8 Noroeste 21 Nordeste 0 -- -- 75
2019-08-06 20:00:00 22.8 11 Nordeste 23 Nordeste 0 -- -- 77
2019-08-06 19:00:00 25.1 9 Norte 24 Nordeste 0 -- -- 73
2019-08-06 18:00:00 26.7 8 Noroeste 13 Oeste 0 -- -- 65
2019-08-06 17:00:00 28.4 7 Norte 16 Noroeste 0 -- -- 46
2019-08-06 16:00:00 29.2 8 Norte 21 Sur 0 -- -- 47
2019-08-06 15:00:00 28.4 8 Oeste 15 Noroeste 0 -- -- 51
2019-08-06 14:00:00 26.2 4 Norte 10 Nordeste 0 -- -- 60
2019-08-06 13:00:00 24.1 2 Norte 10 Oeste 0 -- -- 69
2019-08-06 12:00:00 21.7 3 Sudoeste 13 Noroeste 0 -- -- 76
2019-08-06 11:00:00 18.5 3 Oeste 8 Sur 0 -- -- 88
2019-08-06 10:00:00 17 4 Oeste 9 Oeste 0 -- -- 93
2019-08-06 09:00:00 16.2 0 Calma 6 Oeste 0 -- -- 96
2019-08-06 08:00:00 15.7 2 Sudeste 5 Sur 0 -- -- 98
2019-08-06 07:00:00 15.5 2 Sur 4 Sudoeste 0 -- -- 98
2019-08-06 06:00:00 15.7 0 Calma 5 Noroeste 0 -- -- 96
2019-08-06 05:00:00 16 0 Calma 4 Sudeste 0 -- -- 96
2019-08-06 04:00:00 15.7 0 Calma 5 Sudeste 0 -- -- 96
2019-08-06 03:00:00 15 3 Sudeste 8 Sudeste 0 -- -- 95
2019-08-06 02:00:00 15.1 4 Sudeste 7 Sudeste 0 -- -- 94
2019-08-06 01:00:00 15.5 5 Sudeste 8 Sudeste 0 -- -- 93
2019-08-06 00:00:00 16.6 3 Sur 7 Sudoeste 0 -- -- 89
2019-08-05 23:00:00 17.1 3 Sudeste 6 Sudeste 0 -- -- 88
2019-08-05 22:00:00 19 0 Calma 11 Noroeste 0 -- -- 80
2019-08-05 21:00:00 21.2 6 Norte 12 Norte 0 -- -- 72
2019-08-05 20:00:00 22.8 4 Norte 17 Norte 0 -- -- 74
2019-08-05 19:00:00 24.4 8 Noroeste 17 Noroeste 0 -- -- 70
2019-08-05 18:00:00 25.9 9 Norte 19 Norte 0 -- -- 66
2019-08-05 17:00:00 26.5 8 Norte 19 Noroeste 0 -- -- 64
2019-08-05 16:00:00 26.7 9 Norte 21 Noroeste 0 -- -- 63
2019-08-05 15:00:00 25.6 5 Nordeste 15 Noroeste 0 -- -- 68
2019-08-05 14:00:00 24.5 5 Nordeste 14 Norte 0 -- -- 69
2019-08-05 13:00:00 22.7 4 Sur 11 Noroeste 0 -- -- 76
2019-08-05 12:00:00 -- 5 Norte 8 Noroeste 0 -- -- --
2019-08-05 11:00:00 17.4 3 Noroeste 7 Oeste 0 -- -- 90
2019-08-05 10:00:00 16.5 2 Noroeste 5 Sudoeste 0 -- -- 93
2019-08-05 09:00:00 15.9 3 Oeste 7 Oeste 0 -- -- 94
2019-08-05 08:00:00 16 5 Noroeste 7 Noroeste 0 -- -- 94
2019-08-05 07:00:00 15.8 2 Oeste 6 Oeste 0 -- -- 95
2019-08-05 06:00:00 16.1 0 Calma 4 Noroeste 0 -- -- 94
2019-08-05 05:00:00 16.4 2 Noroeste 6 Oeste 0 -- -- 93
2019-08-05 04:00:00 16.5 2 Sudoeste 9 Oeste 0 -- -- 92
2019-08-05 03:00:00 16.7 3 Oeste 8 Oeste 0 -- -- 92
2019-08-05 02:00:00 17 2 Sudoeste 16 Oeste 0 -- -- 90
2019-08-05 01:00:00 18 2 Este 8 Noroeste 0 -- -- 86
2019-08-05 00:00:00 18.2 6 Noroeste 18 Noroeste 0 -- -- 86
2019-08-04 23:00:00 18.6 6 Noroeste 16 Noroeste 0 -- -- 85
2019-08-04 22:00:00 18.9 6 Nordeste 12 Nordeste 0 -- -- 86
2019-08-04 21:00:00 19.5 6 Nordeste 19 Este 0 -- -- 85
2019-08-04 20:00:00 22.2 9 Norte 20 Norte 0 -- -- 75
2019-08-04 19:00:00 24 6 Norte 18 Norte 0 -- -- 71
2019-08-04 18:00:00 25.3 12 Noroeste 24 Norte 0 -- -- 67
2019-08-04 17:00:00 26.5 10 Norte 36 Noroeste 0 -- -- 64
2019-08-04 16:00:00 27.1 8 Norte 22 Noroeste 0 -- -- 62
2019-08-04 15:00:00 26.4 8 Oeste 18 Oeste 0 -- -- 62
2019-08-04 14:00:00 24.4 7 Norte 15 Oeste 0 -- -- 68
2019-08-04 13:00:00 23.1 6 Sudoeste 13 Noroeste 0 -- -- 72
2019-08-04 12:00:00 21.3 6 Oeste 12 Noroeste 0 -- -- 77
2019-08-04 11:00:00 19.7 5 Norte 10 Norte 0 -- -- 82
2019-08-04 10:00:00 18.7 5 Norte 9 Norte 0 -- -- 87
2019-08-04 09:00:00 17.8 3 Oeste 5 Oeste 0 -- -- 93
2019-08-04 08:00:00 17.5 2 Oeste 6 Sudoeste 0 -- -- 94
2019-08-04 07:00:00 17.4 0 Calma 6 Oeste 0 -- -- 94
2019-08-04 06:00:00 17.5 0 Calma 9 Sudoeste 0 -- -- 93
2019-08-04 05:00:00 17.6 3 Oeste 7 Oeste 0 -- -- 94
2019-08-04 04:00:00 17.6 3 Oeste 9 Oeste 0 -- -- 94
2019-08-04 03:00:00 17.6 0 Calma 7 Oeste 0 -- -- 93
2019-08-04 02:00:00 17.7 3 Sudoeste 9 Sudoeste 0 -- -- 93
2019-08-04 01:00:00 18 3 Oeste 12 Oeste 0 -- -- 92
2019-08-04 00:00:00 18.3 3 Oeste 8 Sudoeste 0 -- -- 92
2019-08-03 23:00:00 19.4 2 Sur 11 Oeste 0 -- -- 86
2019-08-03 22:00:00 22.1 7 Oeste 23 Norte 0 -- -- 78
2019-08-03 21:00:00 24.4 12 Nordeste 23 Nordeste 0 -- -- 68
2019-08-03 20:00:00 26.1 9 Nordeste 30 Nordeste 0 -- -- 68
2019-08-03 19:00:00 27.6 12 Nordeste 27 Nordeste 0 -- -- 62
2019-08-03 18:00:00 29 17 Nordeste 29 Nordeste 0 -- -- 55
2019-08-03 17:00:00 30.3 8 Nordeste 18 Nordeste 0 -- -- 39
2019-08-03 16:00:00 30.5 7 Norte 18 Noroeste 0 -- -- 39
2019-08-03 15:00:00 29.9 5 Sudeste 12 Este 0 -- -- 42
2019-08-03 14:00:00 28.3 6 Norte 15 Noroeste 0 -- -- 48
2019-08-03 13:00:00 25.9 5 Noroeste 16 Oeste 0 -- -- 57
2019-08-03 12:00:00 22.8 4 Noroeste 9 Norte 0 -- -- 68
2019-08-03 11:00:00 18.8 3 Oeste 8 Oeste 0 -- -- 88
2019-08-03 10:00:00 15.7 2 Sudoeste 6 Oeste 0 -- -- 95
2019-08-03 09:00:00 13.8 0 Calma 6 Sudeste 0 -- -- 100
2019-08-03 08:00:00 12.1 4 Sudeste 8 Sudeste 0 -- -- 97
2019-08-03 07:00:00 11.9 5 Sudeste 8 Sudeste 0 -- -- 95
2019-08-03 06:00:00 12.5 7 Sudeste 9 Sudeste 0 -- -- 95
2019-08-03 05:00:00 13 6 Sudeste 9 Sudeste 0 -- -- 97
2019-08-03 04:00:00 12.4 7 Sudeste 10 Sudeste 0 -- -- 96
2019-08-03 03:00:00 13 5 Sudeste 9 Sudeste 0 -- -- 96
2019-08-03 02:00:00 13.9 8 Sudeste 10 Sudeste 0 -- -- 94
2019-08-03 01:00:00 14.8 4 Sudeste 6 Este 0 -- -- 92
2019-08-03 00:00:00 15.5 6 Sudeste 8 Sudeste 0 -- -- 92
2019-08-02 23:00:00 17 5 Sudeste 10 Sur 0 -- -- 88
2019-08-02 22:00:00 19.6 6 Sur 16 Sur 0 -- -- 81
2019-08-02 21:00:00 22.8 3 Norte 9 Norte 0 -- -- 70
2019-08-02 20:00:00 24.3 6 Norte 14 Norte 0 -- -- 64
2019-08-02 19:00:00 25.4 6 Noroeste 16 Noroeste 0 -- -- 58
2019-08-02 18:00:00 25.4 8 Norte 16 Noroeste 0 -- -- 59
2019-08-02 17:00:00 25.1 -- -- -- -- 0 -- -- 58
2019-08-02 16:00:00 24.3 8 Norte 16 Norte 0 -- -- 61
2019-08-02 15:00:00 23.5 7 Nordeste 18 Norte 0 -- -- 61
2019-08-02 14:00:00 22.3 8 Norte 16 Norte 0 -- -- 68
2019-08-02 13:00:00 21.4 5 Nordeste 16 Nordeste 0 -- -- 69
2019-08-02 12:00:00 20.4 8 Nordeste 15 Nordeste 0 -- -- 72
2019-08-02 11:00:00 19.2 10 Nordeste 24 Nordeste 0 -- -- 76
2019-08-02 10:00:00 18.2 9 Nordeste 19 Norte 0 -- -- 79
2019-08-02 09:00:00 16.1 0 Calma 6 Sudoeste 0 -- -- 97
2019-08-02 08:00:00 15.6 0 Calma 6 Oeste 0 -- -- 97
2019-08-02 07:00:00 15.5 4 Oeste 9 Oeste 0 -- -- 97
2019-08-02 06:00:00 15.6 0 Calma 5 Oeste 0 -- -- 97
2019-08-02 05:00:00 15.6 2 Oeste 6 Sudoeste 0 -- -- 97
2019-08-02 04:00:00 15.6 2 Oeste 8 Oeste 0 -- -- 96
2019-08-02 03:00:00 15.8 2 Oeste 6 Sudoeste 0 -- -- 95
2019-08-02 02:00:00 15.9 0 Calma 6 Oeste 0 -- -- 95
2019-08-02 01:00:00 16.1 3 Oeste 8 Sudoeste 0 -- -- 95
2019-08-02 00:00:00 16.4 3 Oeste 8 Oeste 0 -- -- 94
2019-08-01 23:00:00 16.5 6 Oeste 11 Noroeste 0 -- -- 93
2019-08-01 22:00:00 16.8 2 Oeste 14 Oeste 0 -- -- 91
2019-08-01 21:00:00 17 8 Oeste 21 Noroeste 0 -- -- 90
2019-08-01 20:00:00 17.2 13 Noroeste 20 Noroeste 0 -- -- 90
2019-08-01 19:00:00 17.7 12 Noroeste 19 Noroeste 0 -- -- 90
2019-08-01 18:00:00 18.6 13 Noroeste 25 Noroeste 0 -- -- 88
2019-08-01 17:00:00 22 18 Noroeste 23 Noroeste 0 -- -- 78
2019-08-01 16:00:00 24.4 7 Norte 19 Oeste 0 -- -- 69
2019-08-01 15:00:00 24 5 Norte 18 Sudeste 0 -- -- 67
2019-08-01 14:00:00 23.9 10 Sudeste 26 Sudeste 0 -- -- 67
2019-08-01 13:00:00 20.9 5 Oeste 13 Noroeste 0 -- -- 83
2019-08-01 12:00:00 18.4 5 Noroeste 13 Oeste 0 -- -- 92
2019-08-01 11:00:00 16.9 7 Noroeste 13 Oeste 0 -- -- 96
2019-08-01 10:00:00 16.2 2 Oeste 16 Sur 1 -- -- 98
2019-08-01 09:00:00 15.3 5 Sur 53 Sudeste 5.2 -- -- 96
2019-08-01 08:00:00 15.5 28 Este 52 Este 21.4 -- -- 96
2019-08-01 07:00:00 15.3 5 Nordeste 24 Sur 2.8 -- -- 95
2019-08-01 06:00:00 14.5 4 Sudeste 15 Oeste 3 -- -- 97
2019-08-01 05:00:00 14.5 4 Oeste 11 Oeste 0 -- -- 94
2019-08-01 04:00:00 14 5 Este 12 Sur 0 -- -- 94
2019-08-01 03:00:00 13.8 3 Sur 6 Sur 0 -- -- 93
2019-08-01 02:00:00 13.7 2 Sur 5 Sur 0 -- -- 93
2019-08-01 01:00:00 14.1 4 Sur 8 Este 0 -- -- 92
2019-08-01 00:00:00 14.8 4 Sur 8 Sudoeste 0 -- -- 90
2019-07-31 23:00:00 15.1 4 Sudeste 9 Nordeste 0 -- -- 87
2019-07-31 22:00:00 16.5 5 Este 16 Nordeste 0 -- -- 84
2019-07-31 21:00:00 18.3 4 Norte 14 Norte 0 -- -- 76
2019-07-31 20:00:00 20.1 5 Este 22 Este 0 -- -- 69
2019-07-31 19:00:00 21.7 10 Este 23 Este 0 -- -- 62
2019-07-31 18:00:00 23 7 Norte 15 Norte 0 -- -- 58
2019-07-31 17:00:00 23.2 6 Norte 20 Noroeste 0 -- -- 54
2019-07-31 16:00:00 22.7 9 Norte 21 Nordeste 0 -- -- 54
2019-07-31 15:00:00 22.2 10 Norte 22 Nordeste 0 -- -- 53
2019-07-31 14:00:00 20.5 10 Nordeste 24 Nordeste 0 -- -- 57
2019-07-31 13:00:00 19.4 12 Nordeste 22 Nordeste 0 -- -- 57
2019-07-31 12:00:00 18.4 10 Norte 21 Nordeste 0 -- -- 61
2019-07-31 11:00:00 16.6 7 Norte 19 Nordeste 0 -- -- 73
2019-07-31 10:00:00 13.2 3 Oeste 8 Oeste 0 -- -- 89
2019-07-31 09:00:00 11 3 Norte 5 Noroeste 0 -- -- 95
2019-07-31 08:00:00 9.2 4 Sudeste 9 Sudeste 0 -- -- 98
2019-07-31 07:00:00 8.3 6 Sudeste 10 Sudeste 0 -- -- 97
2019-07-31 06:00:00 8.7 2 Sudeste 11 Sudeste 0 -- -- 96
2019-07-31 05:00:00 8.7 8 Sudeste 12 Sudeste 0 -- -- 95
2019-07-31 04:00:00 9 8 Sudeste 12 Sudeste 0 -- -- 96
2019-07-31 03:00:00 9.5 6 Sudeste 9 Sudeste 0 -- -- 93
2019-07-31 02:00:00 10.2 7 Sudeste 9 Sudeste 0 -- -- 94
2019-07-31 01:00:00 10 9 Sudeste 12 Sudeste 0 -- -- 92
2019-07-31 00:00:00 10.1 6 Sudeste 10 Sudeste 0 -- -- 91
2019-07-30 23:00:00 11.5 6 Sudeste 9 Sudeste 0 -- -- 87
2019-07-30 22:00:00 13.6 4 Este 15 Nordeste 0 -- -- 80
2019-07-30 21:00:00 15.5 6 Nordeste 21 Norte 0 -- -- 73
2019-07-30 20:00:00 16.6 11 Norte 27 Norte 0 -- -- 70
2019-07-30 19:00:00 17 13 Nordeste 34 Norte 0 -- -- 68
2019-07-30 18:00:00 17.4 14 Nordeste 29 Nordeste 0 -- -- 68
2019-07-30 17:00:00 19.8 12 Norte 31 Nordeste 0 -- -- 58
2019-07-30 16:00:00 19.3 13 Nordeste 32 Nordeste 0 -- -- 53
2019-07-30 15:00:00 19 11 Norte 22 Norte 0 -- -- 52
2019-07-30 14:00:00 18.4 14 Noroeste 26 Noroeste 0 -- -- 55
2019-07-30 13:00:00 17.4 10 Noroeste 22 Noroeste 0 -- -- 60
2019-07-30 12:00:00 17.9 10 Nordeste 19 Norte 0 -- -- 59
2019-07-30 11:00:00 16.5 7 Oeste 16 Noroeste 0 -- -- 64
2019-07-30 10:00:00 15 12 Noroeste 18 Noroeste 0 -- -- 70
2019-07-30 09:00:00 15.3 6 Norte 12 Noroeste 0 -- -- 72
2019-07-30 08:00:00 13.7 5 Norte 16 Norte 0 -- -- 80
2019-07-30 07:00:00 13.7 11 Norte 20 Noroeste 0 -- -- 80
2019-07-30 06:00:00 14.1 10 Noroeste 14 Noroeste 0 -- -- 82
2019-07-30 05:00:00 14.1 6 Noroeste 13 Noroeste 0 -- -- 84
2019-07-30 04:00:00 14 12 Noroeste 20 Noroeste 0 -- -- 86
2019-07-30 03:00:00 14.2 10 Noroeste 24 Noroeste 0 -- -- 85
2019-07-30 02:00:00 14.5 11 Noroeste 21 Noroeste 0 -- -- 86
2019-07-30 01:00:00 14.4 13 Noroeste 31 Noroeste 0 -- -- 86
2019-07-30 00:00:00 15.2 15 Noroeste 22 Noroeste 0 -- -- 86
2019-07-29 23:00:00 15.8 3 Norte 8 Nordeste 0 -- -- 82
2019-07-29 22:00:00 15.9 4 Nordeste 18 Noroeste 0 -- -- 81
2019-07-29 21:00:00 15.9 9 Nordeste 22 Nordeste 0 -- -- 81
2019-07-29 20:00:00 16.5 12 Nordeste 27 Nordeste 0 -- -- 84
2019-07-29 19:00:00 17.8 10 Nordeste 33 Este 0 -- -- 83
2019-07-29 18:00:00 20 12 Nordeste 36 Nordeste 0 -- -- 74
2019-07-29 17:00:00 22.5 18 Nordeste 33 Nordeste 0 -- -- 66
2019-07-29 16:00:00 25.3 13 Norte 28 Oeste 0 -- -- 56
2019-07-29 15:00:00 27.4 9 Oeste 21 Oeste 0 -- -- 41
2019-07-29 14:00:00 26.6 8 Oeste 28 Sudoeste 0 -- -- 44
2019-07-29 13:00:00 25.7 7 Oeste 18 Noroeste 0 -- -- 47
2019-07-29 12:00:00 23.9 3 Sudeste 10 Oeste 0 -- -- 50
2019-07-29 11:00:00 21.3 4 Noroeste 8 Oeste 0 -- -- 57
2019-07-29 10:00:00 18.9 3 Oeste 8 Noroeste 0 -- -- 65
2019-07-29 09:00:00 16.4 3 Sudoeste 7 Sudoeste 0 -- -- 77
2019-07-29 08:00:00 13.6 5 Sudoeste 9 Noroeste 0 -- -- 87
2019-07-29 07:00:00 11.9 3 Sur 6 Sudeste 0 -- -- 90
2019-07-29 06:00:00 11.8 4 Sudeste 8 Sudeste 0 -- -- 92
2019-07-29 05:00:00 11.8 3 Sudeste 9 Este 0 -- -- 91
2019-07-29 04:00:00 12.4 4 Sudeste 11 Sur 0 -- -- 89
2019-07-29 03:00:00 13 5 Sudoeste 10 Sur 0 -- -- 86
2019-07-29 02:00:00 13.5 3 Sudoeste 10 Sudeste 0 -- -- 84
2019-07-29 01:00:00 13.5 8 Sudeste 12 Sudeste 0 -- -- 85
2019-07-29 00:00:00 14.7 9 Sudeste 13 Este 0 -- -- 81
2019-07-28 23:00:00 16 10 Sudeste 21 Sudeste 0 -- -- 77
2019-07-28 22:00:00 16.6 8 Sudeste 16 Sudeste 0 -- -- 75
2019-07-28 21:00:00 19.6 7 Sudeste 13 Nordeste 0 -- -- 67
2019-07-28 20:00:00 20.4 8 Nordeste 21 Nordeste 0 -- -- 63
2019-07-28 19:00:00 21 7 Nordeste 18 Nordeste 0 -- -- 59
2019-07-28 18:00:00 21.3 5 Noroeste 17 Este 0 -- -- 58
2019-07-28 17:00:00 20.7 7 Noroeste 17 Nordeste 0 -- -- 58
2019-07-28 16:00:00 19.8 9 Nordeste 16 Nordeste 0 -- -- 64
2019-07-28 15:00:00 18.8 6 Nordeste 21 Nordeste 0 -- -- 67
2019-07-28 14:00:00 19.2 7 Oeste 19 Oeste 0 -- -- 67
2019-07-28 13:00:00 17.8 11 Oeste 18 Oeste 0 -- -- 71
2019-07-28 12:00:00 16 6 Noroeste 14 Noroeste 0 -- -- 82
2019-07-28 11:00:00 15.6 3 Sur 9 Oeste 0 -- -- 86
2019-07-28 10:00:00 13.9 4 Oeste 15 Oeste 0 -- -- 95
2019-07-28 09:00:00 13 5 Oeste 14 Oeste 0.2 -- -- 99
2019-07-28 08:00:00 12.5 5 Oeste 11 Oeste 0.2 -- -- 98
2019-07-28 07:00:00 12.3 4 Sudoeste 11 Oeste 0 -- -- 99
2019-07-28 06:00:00 12.2 0 Calma 9 Sudoeste 0 -- -- 98
2019-07-28 05:00:00 12.5 3 Oeste 9 Sudoeste 0 -- -- 99
2019-07-28 04:00:00 12.4 4 Oeste 17 Oeste 0.4 -- -- 100
2019-07-28 03:00:00 12.5 7 Oeste 15 Oeste 0 -- -- 99
2019-07-28 02:00:00 12.7 4 Oeste 15 Sudoeste 0.2 -- -- 99
2019-07-28 01:00:00 12.5 4 Oeste 8 Sudoeste 0 -- -- 98
2019-07-28 00:00:00 12.4 6 Oeste 11 Oeste 0 -- -- 96
2019-07-27 23:00:00 12.9 9 Noroeste 21 Noroeste 0.2 -- -- 96
2019-07-26 12:00:00 -- -- -- -- -- -- -- -- --
2019-07-26 11:00:00 18.4 5 Oeste 18 Noroeste 0 -- -- 94
2019-07-26 10:00:00 19.8 13 Noroeste 17 Noroeste 0 -- -- 91
2019-07-26 09:00:00 17.4 6 Sudeste 17 Sudoeste 0.6 -- -- 98
2019-07-26 08:00:00 17.5 6 Oeste 21 Sudoeste 0.2 -- -- 97
2019-07-26 07:00:00 17.4 5 Este 19 Este 0.4 -- -- 96
2019-07-26 06:00:00 17.7 8 Noroeste 31 Este 1.4 -- -- 95
2019-07-26 05:00:00 17.7 9 Sudeste 19 Este 3.8 -- -- 95
2019-07-26 04:00:00 18.2 5 Noroeste 17 Noroeste 0 -- -- 90
2019-07-26 03:00:00 18.5 6 Norte 17 Nordeste 0 -- -- 93
2019-07-26 02:00:00 19.1 8 Nordeste 15 Nordeste 0 -- -- 92
2019-07-26 01:00:00 19.7 6 Nordeste 14 Noroeste 0 -- -- 90
2019-07-26 00:00:00 19.9 8 Noroeste 13 Noroeste 0 -- -- 88
2019-07-25 23:00:00 20 7 Noroeste 24 Noroeste 0 -- -- 91
2019-07-25 22:00:00 20.7 9 Norte 27 Noroeste 0 -- -- 89
2019-07-25 21:00:00 22.2 7 Sur 18 Sudoeste 0 -- -- 84
2019-07-25 20:00:00 24.7 3 Sur 14 Sudoeste 0 -- -- 76
2019-07-25 19:00:00 25.8 7 Sudoeste 32 Sur 1.2 -- -- 74
2019-07-25 18:00:00 33.4 10 Este 24 Nordeste 0 -- -- 32
2019-07-25 17:00:00 35.1 14 Este 31 Nordeste 0 -- -- 28
2019-07-25 16:00:00 34.7 14 Sudeste 31 Este 0 -- -- 29
2019-07-25 15:00:00 34.4 13 Sudeste 36 Sudeste 0 -- -- 31
2019-07-25 14:00:00 33.5 21 Sudeste 38 Sudeste 0 -- -- 31
2019-07-25 13:00:00 31.5 25 Sudeste 44 Sudeste 0 -- -- 33
2019-07-25 12:00:00 30.3 25 Sudeste 43 Sudeste 0 -- -- 37
2019-07-25 11:00:00 29 20 Sudeste 42 Sudeste 0 -- -- 39
2019-07-25 10:00:00 27.3 20 Sudeste 44 Sudeste 0 -- -- 43
2019-07-25 09:00:00 26.5 10 Oeste 53 Sudeste 0 -- -- 43
2019-07-25 08:00:00 25.1 29 Sudeste 56 Sudeste 0 -- -- 47
2019-07-25 07:00:00 25.2 29 Sudeste 50 Sudeste 0 -- -- 45
2019-07-25 06:00:00 25.7 32 Sudeste 52 Este 0 -- -- 44
2019-07-25 05:00:00 26 32 Sudeste 54 Sudeste 0 -- -- 44
2019-07-25 04:00:00 26.9 31 Sudeste 52 Sudeste 0 -- -- 41
2019-07-25 03:00:00 27.5 31 Sudeste 51 Sudeste 0 -- -- 39
2019-07-25 02:00:00 27.5 27 Sudeste 40 Sudeste 0 -- -- 38
2019-07-25 01:00:00 27.8 21 Sudeste 34 Sudeste 0 -- -- 38
2019-07-25 00:00:00 27.8 19 Sudeste 28 Este 0 -- -- 36
2019-07-24 23:00:00 25.6 13 Sudeste 18 Este 0 -- -- 39
2019-07-24 22:00:00 24.3 12 Sudeste 15 Sudeste 0 -- -- 52
2019-07-24 21:00:00 27.6 6 Sudeste 14 Sudoeste 0 -- -- 47
2019-07-24 20:00:00 28.9 6 Sudeste 25 Nordeste 0 -- -- 46
2019-07-24 19:00:00 32.3 17 Noroeste 31 Noroeste 0 -- -- 33
2019-07-24 18:00:00 35.3 14 Este 31 Este 0 -- -- 25
2019-07-24 17:00:00 35.2 13 Este 33 Este 0 -- -- 28
2019-07-24 16:00:00 35 19 Sudeste 36 Sudeste 0 -- -- 28
2019-07-24 15:00:00 34.9 12 Este 28 Este 0 -- -- 27
2019-07-24 14:00:00 33.9 14 Sudeste 35 Sudeste 0 -- -- 27
2019-07-24 13:00:00 33.5 14 Sudeste 28 Sur 0 -- -- 31
2019-07-24 12:00:00 32.2 15 Sudeste 30 Sur 0 -- -- 33
2019-07-24 11:00:00 29.1 4 Norte 11 Nordeste 0 -- -- 42
2019-07-24 10:00:00 25.2 5 Nordeste 9 Norte 0 -- -- 55
2019-07-24 09:00:00 22.5 3 Nordeste 8 Sudeste 0 -- -- 63
2019-07-24 08:00:00 19.1 6 Sudeste 18 Oeste 0 -- -- 75
2019-07-24 07:00:00 18.7 8 Sudoeste 32 Sudeste 0 -- -- 68
2019-07-24 06:00:00 22.9 18 Sudeste 33 Sudeste 0 -- -- 50
2019-07-24 05:00:00 18.2 4 Sur 14 Sudeste 0 -- -- 68
2019-07-24 04:00:00 18.6 6 Sudeste 9 Sudeste 0 -- -- 69
2019-07-24 03:00:00 20.9 4 Sudoeste 18 Oeste 0 -- -- 62
2019-07-24 02:00:00 20.4 8 Sudeste 15 Sudeste 0 -- -- 62
2019-07-24 01:00:00 21.1 8 Este 26 Oeste 0 -- -- 67
2019-07-24 00:00:00 22.6 8 Sudoeste 29 Oeste 0 -- -- 57